Bo Airport

Jump to: basic info | weather | comments

Related pages: nearby airports | nearby navaids | notams | map

Basic information (top)

Codes: KBS GFBO
Location: lon 7.944400, lat -11.761000, elev 328 ft / 100 m msl
Status: medium_airport
Scheduled airline service: yes
Links: Wikipedia Mobile

Weather (top)

Current conditions for Lungi International Airport 94nm (175km) WNW (rec'd 2014/07/31 13:00Z):

GFLL 311300Z 21006KT 9999 SCT014 29/24 Q1014 RMK-NE

Airport forecast for Lungi International Airport 94nm (175km) WNW (rec'd 2014/07/31 12:00Z):

TAF GFLL 311000Z 3112/0118 21004KT 7000 -RA BKN009 
      TEMPO 3111/3119 26010KT 8000 BKN010 FEW027CB PROB30 
      TEMPO 3120/0104 12012KT 6000 TSRA BKN008 FEW026CB 
      BECMG 0108/0110 15006KT 8000 BKN010

Latest comments (top)

No comments yet for Bo Airport

More... (top)

See also NOTAMs and nearby airports and navaids, or visit the Bo Airport page at the main OurAirports website..